Time;durP1;ratioP1;P1;durP2;ratioP2;P2;SDS_P1;SDS_P2;PMS_P1;PMS_P2;Temp;Humidity;BMP_temperature;BMP_pressure;BME280_temperature;BME280_humidity;BME280_pressure;Samples;Min_cycle;Max_cycle;Signal;HPM_P1;HPM_P2
2023/12/09 00:00:47;;;;;;;6.90;4.50;;;;;;;;;;4976866;28;89061;-68
2023/12/09 00:03:15;;;;;;;6.43;4.53;;;;;;;;;;4981664;28;88938;-71
2023/12/09 00:05:44;;;;;;;8.33;5.60;;;;;;;;;;4980889;28;89573;-71
2023/12/09 00:08:13;;;;;;;9.90;5.30;;;;;;;;;;4994629;28;90397;-69
2023/12/09 00:10:41;;;;;;;7.70;4.27;;;;;;;;;;4993132;28;89489;-69
2023/12/09 00:13:10;;;;;;;8.40;4.70;;;;;;;;;;4989649;28;88589;-68
2023/12/09 00:15:39;;;;;;;6.30;4.77;;;;;;;;;;4982058;28;88637;-69
2023/12/09 00:18:09;;;;;;;7.47;4.90;;;;;;;;;;4983468;28;89609;-69
2023/12/09 00:20:38;;;;;;;5.07;3.90;;;;;;;;;;4984767;28;89068;-68
2023/12/09 00:23:07;;;;;;;10.23;5.00;;;;;;;;;;4983499;28;87945;-70
2023/12/09 00:25:35;;;;;;;9.17;5.47;;;;;;;;;;4986084;28;87626;-71
2023/12/09 00:28:04;;;;;;;9.33;6.33;;;;;;;;;;4983465;28;89661;-70
2023/12/09 00:30:32;;;;;;;10.10;6.07;;;;;;;;;;4987982;28;89164;-69
2023/12/09 00:33:01;;;;;;;8.63;4.53;;;;;;;;;;4983531;28;88774;-70
2023/12/09 00:35:31;;;;;;;10.07;4.43;;;;;;;;;;4982817;28;87596;-70
2023/12/09 00:38:00;;;;;;;6.90;4.00;;;;;;;;;;4982287;28;88564;-70
2023/12/09 00:40:28;;;;;;;6.00;4.33;;;;;;;;;;4983011;28;89101;-70
2023/12/09 00:42:56;;;;;;;4.93;4.10;;;;;;;;;;4976993;28;89029;-70
2023/12/09 00:45:25;;;;;;;6.37;3.60;;;;;;;;;;4984231;28;87662;-69
2023/12/09 00:47:54;;;;;;;8.87;4.80;;;;;;;;;;4982383;28;90091;-70
2023/12/09 00:50:23;;;;;;;9.73;5.03;;;;;;;;;;4971091;28;90801;-70
2023/12/09 00:52:52;;;;;;;5.63;3.83;;;;;;;;;;4982264;28;88837;-70
2023/12/09 00:55:21;;;;;;;6.77;4.60;;;;;;;;;;4982852;28;87656;-70
2023/12/09 00:57:49;;;;;;;7.53;4.23;;;;;;;;;;4982346;28;89642;-70
2023/12/09 01:00:18;;;;;;;9.47;5.50;;;;;;;;;;4982267;28;88945;-70
2023/12/09 01:02:46;;;;;;;9.87;4.67;;;;;;;;;;4982686;28;88890;-69
2023/12/09 01:05:15;;;;;;;6.67;4.13;;;;;;;;;;4982087;28;87657;-70
2023/12/09 01:07:43;;;;;;;5.97;3.57;;;;;;;;;;4984154;28;89739;-71
2023/12/09 01:10:13;;;;;;;7.50;3.47;;;;;;;;;;4985814;28;89084;-70
2023/12/09 01:12:41;;;;;;;10.73;4.57;;;;;;;;;;4983854;28;88339;-71
2023/12/09 01:15:10;;;;;;;9.83;4.63;;;;;;;;;;4980743;28;87466;-69
2023/12/09 01:17:38;;;;;;;8.40;3.57;;;;;;;;;;4980288;28;88650;-70
2023/12/09 01:20:07;;;;;;;9.07;3.53;;;;;;;;;;4981612;28;89306;-69
2023/12/09 01:22:36;;;;;;;6.60;3.97;;;;;;;;;;4981771;28;88579;-69
2023/12/09 01:25:05;;;;;;;5.70;3.87;;;;;;;;;;4983817;28;87596;-69
2023/12/09 01:27:34;;;;;;;6.43;4.27;;;;;;;;;;4973820;28;90075;-69
2023/12/09 01:30:03;;;;;;;6.40;3.07;;;;;;;;;;4970986;28;89038;-70
2023/12/09 01:32:32;;;;;;;6.47;3.47;;;;;;;;;;4987392;28;88807;-69
2023/12/09 01:35:00;;;;;;;3.43;3.13;;;;;;;;;;4984680;28;87708;-69
2023/12/09 01:37:28;;;;;;;5.97;3.47;;;;;;;;;;4982011;28;87636;-69
2023/12/09 01:39:57;;;;;;;5.43;3.67;;;;;;;;;;4981596;28;89028;-69
2023/12/09 01:42:25;;;;;;;6.57;3.50;;;;;;;;;;4978999;28;88052;-70
2023/12/09 01:44:55;;;;;;;8.53;4.30;;;;;;;;;;4987191;28;87588;-69
2023/12/09 01:47:24;;;;;;;4.03;2.73;;;;;;;;;;4981403;28;89640;-69
2023/12/09 01:49:52;;;;;;;8.40;3.73;;;;;;;;;;4975560;28;89537;-70
2023/12/09 01:52:21;;;;;;;6.13;3.20;;;;;;;;;;4975103;28;88872;-70
2023/12/09 01:54:49;;;;;;;8.30;3.63;;;;;;;;;;4963332;28;87587;-69
2023/12/09 01:57:18;;;;;;;5.97;2.97;;;;;;;;;;4962139;28;89629;-69
2023/12/09 01:59:46;;;;;;;6.83;3.67;;;;;;;;;;4961711;28;89506;-70
2023/12/09 02:02:16;;;;;;;5.87;2.70;;;;;;;;;;4968587;28;88020;-69
2023/12/09 02:04:44;;;;;;;6.23;3.67;;;;;;;;;;4982173;28;87545;-69
2023/12/09 02:07:13;;;;;;;5.73;3.27;;;;;;;;;;4981842;28;89696;-70
2023/12/09 02:09:42;;;;;;;6.07;3.23;;;;;;;;;;4981882;28;89007;-69
2023/12/09 02:12:12;;;;;;;5.03;3.00;;;;;;;;;;4980955;28;88996;-69
2023/12/09 02:14:41;;;;;;;5.57;3.10;;;;;;;;;;5001799;28;87683;-70
2023/12/09 02:17:10;;;;;;;5.67;4.07;;;;;;;;;;4978699;28;89675;-70
2023/12/09 02:19:39;;;;;;;5.13;3.60;;;;;;;;;;4983468;28;89008;-69
2023/12/09 02:22:09;;;;;;;4.97;3.00;;;;;;;;;;4974081;28;88859;-70
2023/12/09 02:24:39;;;;;;;4.80;2.43;;;;;;;;;;4981817;28;87754;-70
2023/12/09 02:27:09;;;;;;;5.80;3.03;;;;;;;;;;4981270;28;91575;-70
2023/12/09 02:29:40;;;;;;;8.60;3.67;;;;;;;;;;4981388;28;87560;-69
2023/12/09 02:32:08;;;;;;;6.63;2.07;;;;;;;;;;4980920;28;88854;-70
2023/12/09 02:34:38;;;;;;;5.77;2.90;;;;;;;;;;4982615;28;87637;-69
2023/12/09 02:37:06;;;;;;;6.20;2.83;;;;;;;;;;4983609;28;89577;-69
2023/12/09 02:39:34;;;;;;;8.17;2.67;;;;;;;;;;4985041;28;89173;-70
2023/12/09 02:42:05;;;;;;;3.67;2.20;;;;;;;;;;4980762;28;88602;-69
2023/12/09 02:44:33;;;;;;;8.40;2.47;;;;;;;;;;4973494;28;87528;-69
2023/12/09 02:47:02;;;;;;;3.53;2.70;;;;;;;;;;4984263;28;88490;-70
2023/12/09 02:49:30;;;;;;;4.47;2.50;;;;;;;;;;4979795;28;89095;-69
2023/12/09 02:51:59;;;;;;;3.43;2.30;;;;;;;;;;4981243;28;88083;-70
2023/12/09 02:54:27;;;;;;;4.00;2.87;;;;;;;;;;4980437;28;87607;-69
2023/12/09 02:56:55;;;;;;;5.43;2.70;;;;;;;;;;4980443;28;89855;-69
2023/12/09 02:59:27;;;;;;;3.30;2.50;;;;;;;;;;4981027;28;88967;-69
2023/12/09 03:01:55;;;;;;;4.47;2.47;;;;;;;;;;4983850;28;88552;-69
2023/12/09 03:04:24;;;;;;;4.83;2.53;;;;;;;;;;4989291;28;87653;-69
2023/12/09 03:06:52;;;;;;;8.20;2.30;;;;;;;;;;4986444;28;89723;-69
2023/12/09 03:09:20;;;;;;;4.80;2.53;;;;;;;;;;4988931;28;89089;-69
2023/12/09 03:11:49;;;;;;;5.10;2.53;;;;;;;;;;4984913;28;88945;-69
2023/12/09 03:14:17;;;;;;;3.67;2.47;;;;;;;;;;4985709;28;87633;-69
2023/12/09 03:16:47;;;;;;;3.97;2.50;;;;;;;;;;4988985;28;89612;-69
2023/12/09 03:19:15;;;;;;;4.83;3.07;;;;;;;;;;4984101;28;89091;-68
2023/12/09 03:21:43;;;;;;;5.17;2.53;;;;;;;;;;4982347;28;91475;-69
2023/12/09 03:24:12;;;;;;;4.57;2.23;;;;;;;;;;4982621;28;87767;-69
2023/12/09 03:26:40;;;;;;;3.63;2.70;;;;;;;;;;4975419;28;88585;-68
2023/12/09 03:29:08;;;;;;;4.87;3.20;;;;;;;;;;4982060;28;89215;-68
2023/12/09 03:31:41;;;;;;;4.23;2.10;;;;;;;;;;4979724;28;87485;-68
2023/12/09 03:34:10;;;;;;;4.07;2.90;;;;;;;;;;4986310;28;87624;-68
2023/12/09 03:36:39;;;;;;;3.20;2.30;;;;;;;;;;4982822;28;89720;-68
2023/12/09 03:39:07;;;;;;;3.60;2.53;;;;;;;;;;4987230;28;89145;-69
2023/12/09 03:41:35;;;;;;;5.60;3.33;;;;;;;;;;4988708;28;88145;-69
2023/12/09 03:44:04;;;;;;;4.47;2.63;;;;;;;;;;4990033;28;87560;-69
2023/12/09 03:46:32;;;;;;;3.03;2.40;;;;;;;;;;4987273;28;89767;-69
2023/12/09 03:49:00;;;;;;;5.77;3.17;;;;;;;;;;4987187;28;89252;-69
2023/12/09 03:51:30;;;;;;;5.17;2.30;;;;;;;;;;4989811;28;87770;-68
2023/12/09 03:53:59;;;;;;;4.23;1.90;;;;;;;;;;4984463;28;87537;-68
2023/12/09 03:56:27;;;;;;;3.13;2.23;;;;;;;;;;4986677;28;89626;-69
2023/12/09 03:58:56;;;;;;;6.10;2.50;;;;;;;;;;4988309;28;89125;-69
2023/12/09 04:01:24;;;;;;;3.20;2.20;;;;;;;;;;4984793;28;88804;-69
2023/12/09 04:03:53;;;;;;;4.37;2.47;;;;;;;;;;4985670;28;87722;-69
2023/12/09 04:06:22;;;;;;;2.43;2.23;;;;;;;;;;4974203;28;91786;-69
2023/12/09 04:08:52;;;;;;;5.33;2.87;;;;;;;;;;4986895;28;89199;-69
2023/12/09 04:11:20;;;;;;;3.67;2.63;;;;;;;;;;4984284;28;88037;-69
2023/12/09 04:13:48;;;;;;;4.23;2.27;;;;;;;;;;4974355;28;87692;-69
2023/12/09 04:16:17;;;;;;;3.20;2.90;;;;;;;;;;4986675;28;89574;-69
2023/12/09 04:18:45;;;;;;;6.63;3.00;;;;;;;;;;4987586;28;89082;-69
2023/12/09 04:21:13;;;;;;;3.23;2.67;;;;;;;;;;4987602;28;88524;-69
2023/12/09 04:23:42;;;;;;;3.17;2.57;;;;;;;;;;4985306;28;87634;-69
2023/12/09 04:26:11;;;;;;;3.90;2.73;;;;;;;;;;4983659;28;89782;-69
2023/12/09 04:28:40;;;;;;;10.90;3.93;;;;;;;;;;4986065;28;89203;-69
2023/12/09 04:31:08;;;;;;;6.67;3.13;;;;;;;;;;4979398;28;90698;-69
2023/12/09 04:33:36;;;;;;;6.37;2.83;;;;;;;;;;4979525;28;87643;-69
2023/12/09 04:36:05;;;;;;;5.73;3.33;;;;;;;;;;4976217;28;89792;-69
2023/12/09 04:38:33;;;;;;;5.70;3.80;;;;;;;;;;4979327;28;88898;-69
2023/12/09 04:41:02;;;;;;;5.97;3.33;;;;;;;;;;4984581;28;91821;-69
2023/12/09 04:43:32;;;;;;;7.53;4.97;;;;;;;;;;4987886;28;87681;-69
2023/12/09 04:46:00;;;;;;;4.97;3.30;;;;;;;;;;4978909;28;88445;-69
2023/12/09 04:48:28;;;;;;;5.20;3.77;;;;;;;;;;4975975;28;89137;-69
2023/12/09 04:50:57;;;;;;;6.93;3.67;;;;;;;;;;4980885;28;88837;-69
2023/12/09 04:53:25;;;;;;;4.23;3.57;;;;;;;;;;4981483;28;87448;-69
2023/12/09 04:55:54;;;;;;;6.13;3.73;;;;;;;;;;4982001;28;89686;-69
2023/12/09 04:58:22;;;;;;;8.10;4.07;;;;;;;;;;4983555;28;89114;-68
2023/12/09 05:00:52;;;;;;;9.03;5.00;;;;;;;;;;4981977;28;89485;-68
2023/12/09 05:03:20;;;;;;;7.13;4.13;;;;;;;;;;4982126;28;87667;-68
2023/12/09 05:05:48;;;;;;;7.63;4.63;;;;;;;;;;4981786;28;90803;-68
2023/12/09 05:08:17;;;;;;;5.30;4.17;;;;;;;;;;4981234;28;89236;-68
2023/12/09 05:10:46;;;;;;;6.53;4.17;;;;;;;;;;4981452;28;88822;-70
2023/12/09 05:13:14;;;;;;;6.57;4.30;;;;;;;;;;4981632;28;87999;-69
2023/12/09 05:15:43;;;;;;;12.77;4.70;;;;;;;;;;4981271;28;89899;-69
2023/12/09 05:18:12;;;;;;;5.67;3.70;;;;;;;;;;4979297;28;88194;-69
2023/12/09 05:20:41;;;;;;;8.37;4.20;;;;;;;;;;4978493;28;88846;-69
2023/12/09 05:23:09;;;;;;;10.30;5.07;;;;;;;;;;4978978;28;87652;-69
2023/12/09 05:25:38;;;;;;;7.83;4.13;;;;;;;;;;4988879;28;89793;-69
2023/12/09 05:28:06;;;;;;;7.80;4.33;;;;;;;;;;4988497;28;89116;-69
2023/12/09 05:30:35;;;;;;;8.17;5.03;;;;;;;;;;4985955;28;88935;-69
2023/12/09 05:33:04;;;;;;;11.30;4.53;;;;;;;;;;4990054;28;87717;-69
2023/12/09 05:35:34;;;;;;;7.00;4.40;;;;;;;;;;4990534;28;89587;-69
2023/12/09 05:38:03;;;;;;;6.00;4.50;;;;;;;;;;4993271;28;88976;-68
2023/12/09 05:40:31;;;;;;;6.97;5.00;;;;;;;;;;4980922;28;88678;-69
2023/12/09 05:43:03;;;;;;;8.03;4.57;;;;;;;;;;4980938;28;87545;-69
2023/12/09 05:45:31;;;;;;;9.20;4.93;;;;;;;;;;4985960;28;89586;-69
2023/12/09 05:48:00;;;;;;;7.90;4.53;;;;;;;;;;4992014;28;89534;-69
2023/12/09 05:50:28;;;;;;;7.53;5.40;;;;;;;;;;4988900;28;88849;-69
2023/12/09 05:52:58;;;;;;;7.13;5.07;;;;;;;;;;4992673;28;87625;-69
2023/12/09 05:55:29;;;;;;;7.93;5.47;;;;;;;;;;4985463;28;89666;-69
2023/12/09 05:57:58;;;;;;;7.60;5.20;;;;;;;;;;4989938;28;89088;-69
2023/12/09 06:00:26;;;;;;;6.17;4.93;;;;;;;;;;4987538;28;88992;-69
2023/12/09 06:02:54;;;;;;;9.27;4.80;;;;;;;;;;4991711;28;88483;-69
2023/12/09 06:05:23;;;;;;;10.87;5.83;;;;;;;;;;4989142;28;89784;-70
2023/12/09 06:07:51;;;;;;;6.53;5.13;;;;;;;;;;4990546;28;89237;-69
2023/12/09 06:10:21;;;;;;;6.40;4.57;;;;;;;;;;4987367;28;89756;-71
2023/12/09 06:12:50;;;;;;;7.63;6.00;;;;;;;;;;4988861;28;87649;-70
2023/12/09 06:15:18;;;;;;;7.37;5.50;;;;;;;;;;4988200;28;91691;-71
2023/12/09 06:17:46;;;;;;;8.83;5.50;;;;;;;;;;4990244;28;89180;-69
2023/12/09 06:20:15;;;;;;;6.90;4.47;;;;;;;;;;4989673;28;88508;-71
2023/12/09 06:22:43;;;;;;;6.50;4.60;;;;;;;;;;4983202;28;87590;-69
2023/12/09 06:25:11;;;;;;;9.30;5.23;;;;;;;;;;4979082;28;88327;-71
2023/12/09 06:27:41;;;;;;;7.50;4.50;;;;;;;;;;4978180;28;90555;-71
2023/12/09 06:30:10;;;;;;;7.23;5.17;;;;;;;;;;4974427;28;88929;-71
2023/12/09 06:32:39;;;;;;;8.73;5.00;;;;;;;;;;4985900;28;88945;-72
2023/12/09 06:35:08;;;;;;;8.40;4.93;;;;;;;;;;4979932;28;89652;-72
2023/12/09 06:37:36;;;;;;;10.33;6.07;;;;;;;;;;4976018;28;89082;-72
2023/12/09 06:40:05;;;;;;;11.00;5.77;;;;;;;;;;4976443;28;88169;-72
2023/12/09 06:42:33;;;;;;;7.97;4.80;;;;;;;;;;4984811;28;87784;-72
2023/12/09 06:45:03;;;;;;;13.97;6.30;;;;;;;;;;4979769;28;89862;-72
2023/12/09 06:47:32;;;;;;;8.47;5.70;;;;;;;;;;4976227;28;89192;-71
2023/12/09 06:50:00;;;;;;;8.40;5.93;;;;;;;;;;4974319;28;88149;-71
2023/12/09 06:52:29;;;;;;;7.40;4.73;;;;;;;;;;4979170;28;87656;-72
2023/12/09 06:54:57;;;;;;;6.47;4.50;;;;;;;;;;4976909;28;89562;-72
2023/12/09 06:57:25;;;;;;;9.47;5.60;;;;;;;;;;4976226;28;88939;-72
2023/12/09 06:59:54;;;;;;;7.73;5.63;;;;;;;;;;4979785;28;88468;-71
2023/12/09 07:02:23;;;;;;;8.00;5.63;;;;;;;;;;4979350;28;87785;-71
2023/12/09 07:04:52;;;;;;;9.20;6.30;;;;;;;;;;4971915;28;90781;-71
2023/12/09 07:07:21;;;;;;;8.97;5.50;;;;;;;;;;4982981;28;89186;-71
2023/12/09 07:09:49;;;;;;;8.67;5.93;;;;;;;;;;4969574;28;90786;-71
2023/12/09 07:12:18;;;;;;;8.77;5.17;;;;;;;;;;4982603;28;88000;-71
2023/12/09 07:14:46;;;;;;;8.43;5.20;;;;;;;;;;4979067;28;89404;-72
2023/12/09 07:17:15;;;;;;;7.97;5.70;;;;;;;;;;4978297;28;90373;-72
2023/12/09 07:19:45;;;;;;;8.33;6.17;;;;;;;;;;4975973;28;88991;-72
2023/12/09 07:22:13;;;;;;;8.20;5.37;;;;;;;;;;4977089;28;87902;-72
2023/12/09 07:24:42;;;;;;;9.50;5.03;;;;;;;;;;4982972;28;89631;-72
2023/12/09 07:27:10;;;;;;;7.47;5.40;;;;;;;;;;4983986;28;89369;-72
2023/12/09 07:29:39;;;;;;;10.57;5.80;;;;;;;;;;4975947;28;88831;-72
2023/12/09 07:32:07;;;;;;;7.63;5.40;;;;;;;;;;4979828;28;87667;-72
2023/12/09 07:34:35;;;;;;;8.33;5.27;;;;;;;;;;4975525;28;88330;-72
2023/12/09 07:37:05;;;;;;;7.47;5.20;;;;;;;;;;4977160;28;89213;-72
2023/12/09 07:39:34;;;;;;;7.23;5.17;;;;;;;;;;4978121;28;88871;-72
2023/12/09 07:42:02;;;;;;;8.70;5.87;;;;;;;;;;4978301;28;87526;-72
2023/12/09 07:44:30;;;;;;;6.83;5.23;;;;;;;;;;4976424;28;92459;-73
2023/12/09 07:46:59;;;;;;;9.70;5.30;;;;;;;;;;4976004;28;89258;-72
2023/12/09 07:49:27;;;;;;;8.27;5.20;;;;;;;;;;4978341;28;89707;-72
2023/12/09 07:51:56;;;;;;;12.23;6.17;;;;;;;;;;4974923;28;87643;-72
2023/12/09 07:54:27;;;;;;;11.70;7.50;;;;;;;;;;4981479;28;89585;-71
2023/12/09 07:56:55;;;;;;;13.33;5.70;;;;;;;;;;4982715;28;89160;-71
2023/12/09 07:59:23;;;;;;;10.60;6.87;;;;;;;;;;4983724;28;91451;-72
2023/12/09 08:01:52;;;;;;;12.27;6.50;;;;;;;;;;4979880;28;87662;-74
2023/12/09 08:04:20;;;;;;;8.73;6.50;;;;;;;;;;4974589;28;89844;-72
2023/12/09 08:06:48;;;;;;;8.70;5.90;;;;;;;;;;4978237;28;89363;-69
2023/12/09 08:09:17;;;;;;;9.50;6.40;;;;;;;;;;4981332;28;89346;-71
2023/12/09 08:11:47;;;;;;;10.73;6.30;;;;;;;;;;4980124;28;87666;-72
2023/12/09 08:14:19;;;;;;;9.00;6.20;;;;;;;;;;4979486;28;89652;-72
2023/12/09 08:16:47;;;;;;;9.80;5.33;;;;;;;;;;4979465;28;89227;-72
2023/12/09 08:19:16;;;;;;;8.07;5.80;;;;;;;;;;4986615;28;89646;-73
2023/12/09 08:21:44;;;;;;;13.17;6.00;;;;;;;;;;4981666;28;87723;-71
2023/12/09 08:24:13;;;;;;;9.27;5.90;;;;;;;;;;4978302;28;89691;-72
2023/12/09 08:26:41;;;;;;;8.60;4.87;;;;;;;;;;4984351;28;89058;-71
2023/12/09 08:29:14;;;;;;;9.57;5.37;;;;;;;;;;4995316;28;89664;-71
2023/12/09 08:31:46;;;;;;;12.47;5.47;;;;;;;;;;4988760;28;87884;-70
2023/12/09 08:34:15;;;;;;;14.00;5.33;;;;;;;;;;4985589;28;90269;-70
2023/12/09 08:36:43;;;;;;;9.53;6.10;;;;;;;;;;4985440;28;89235;-69
2023/12/09 08:39:14;;;;;;;6.87;5.63;;;;;;;;;;4984500;28;88113;-70
2023/12/09 08:41:43;;;;;;;9.20;5.07;;;;;;;;;;4985430;28;87600;-69
2023/12/09 08:44:12;;;;;;;6.93;4.90;;;;;;;;;;4989271;28;88318;-68
2023/12/09 08:46:41;;;;;;;8.80;5.30;;;;;;;;;;4989638;28;89041;-67
2023/12/09 08:49:09;;;;;;;12.03;5.33;;;;;;;;;;4988332;28;88862;-69
2023/12/09 08:51:44;;;;;;;7.53;5.07;;;;;;;;;;4987490;28;88835;-68
2023/12/09 08:54:13;;;;;;;9.17;4.87;;;;;;;;;;4989468;28;89974;-68
2023/12/09 08:56:41;;;;;;;7.07;4.47;;;;;;;;;;4991750;28;88373;-68
2023/12/09 08:59:10;;;;;;;8.30;5.43;;;;;;;;;;4988124;28;88985;-72
2023/12/09 09:01:41;;;;;;;7.53;4.97;;;;;;;;;;4975532;28;87457;-72
2023/12/09 09:04:09;;;;;;;8.27;5.23;;;;;;;;;;4978681;28;89731;-72
2023/12/09 09:06:38;;;;;;;8.23;5.67;;;;;;;;;;4985758;28;89068;-72
2023/12/09 09:09:09;;;;;;;9.27;4.70;;;;;;;;;;4984975;28;88975;-72
2023/12/09 09:11:38;;;;;;;10.03;5.30;;;;;;;;;;4980832;28;87387;-72
2023/12/09 09:14:06;;;;;;;11.10;5.90;;;;;;;;;;4984650;28;89595;-72
2023/12/09 09:16:35;;;;;;;15.00;5.87;;;;;;;;;;4978969;28;89072;-72
2023/12/09 09:19:05;;;;;;;8.37;5.93;;;;;;;;;;4991144;28;88761;-72
2023/12/09 09:21:33;;;;;;;8.27;5.47;;;;;;;;;;4979778;28;89074;-72
2023/12/09 09:24:02;;;;;;;11.00;5.73;;;;;;;;;;4991437;28;90269;-72
2023/12/09 09:26:30;;;;;;;10.53;5.40;;;;;;;;;;4980530;28;88061;-73
2023/12/09 09:28:59;;;;;;;11.17;6.10;;;;;;;;;;4978943;28;89728;-72
2023/12/09 09:31:27;;;;;;;14.90;6.57;;;;;;;;;;4975343;28;89092;-73
2023/12/09 09:33:55;;;;;;;12.50;6.23;;;;;;;;;;4979916;28;89664;-71
2023/12/09 09:36:25;;;;;;;11.30;6.23;;;;;;;;;;4979146;28;88552;-72
2023/12/09 09:38:54;;;;;;;10.73;6.30;;;;;;;;;;4987052;28;88940;-71
2023/12/09 09:41:23;;;;;;;9.53;5.87;;;;;;;;;;4990646;28;87659;-72
2023/12/09 09:43:54;;;;;;;8.67;6.00;;;;;;;;;;4987878;28;92389;-70
2023/12/09 09:46:22;;;;;;;8.60;5.60;;;;;;;;;;4986464;28;89143;-71
2023/12/09 09:48:51;;;;;;;8.07;5.20;;;;;;;;;;4989933;28;88864;-71
2023/12/09 09:51:22;;;;;;;10.67;6.00;;;;;;;;;;4991088;28;87775;-71
2023/12/09 09:53:58;;;;;;;8.93;4.97;;;;;;;;;;4985501;28;89638;-72
2023/12/09 09:56:27;;;;;;;13.43;5.77;;;;;;;;;;4990758;28;89182;-72
2023/12/09 09:58:56;;;;;;;10.47;5.90;;;;;;;;;;4990767;28;88081;-72
2023/12/09 10:01:24;;;;;;;9.30;5.87;;;;;;;;;;4990017;28;87583;-71
2023/12/09 10:03:52;;;;;;;11.70;5.97;;;;;;;;;;4989317;28;89649;-72
2023/12/09 10:06:21;;;;;;;8.40;5.50;;;;;;;;;;4990263;28;91668;-72
2023/12/09 10:08:49;;;;;;;9.73;5.67;;;;;;;;;;4990286;28;89004;-72
2023/12/09 10:11:19;;;;;;;12.33;7.23;;;;;;;;;;4980721;28;87669;-72
2023/12/09 10:13:48;;;;;;;12.47;5.53;;;;;;;;;;4980520;28;89664;-72
2023/12/09 10:16:16;;;;;;;11.87;6.37;;;;;;;;;;4980382;28;88978;-72
2023/12/09 10:18:46;;;;;;;8.73;5.83;;;;;;;;;;4980379;28;87908;-72
2023/12/09 10:21:15;;;;;;;9.00;4.73;;;;;;;;;;4980286;28;87614;-72
2023/12/09 10:23:45;;;;;;;9.30;5.13;;;;;;;;;;4979460;28;89630;-72
2023/12/09 10:26:13;;;;;;;8.93;4.93;;;;;;;;;;4980861;28;89145;-72
2023/12/09 10:28:43;;;;;;;9.27;5.17;;;;;;;;;;4981557;28;88913;-71
2023/12/09 10:31:12;;;;;;;7.13;4.40;;;;;;;;;;4982114;28;87774;-71
2023/12/09 10:33:44;;;;;;;6.07;4.50;;;;;;;;;;4981344;28;89618;-71
2023/12/09 10:36:13;;;;;;;6.53;4.70;;;;;;;;;;4981081;28;89344;-71
2023/12/09 10:38:44;;;;;;;6.17;4.93;;;;;;;;;;4981000;28;88891;-71
2023/12/09 10:41:15;;;;;;;9.77;5.23;;;;;;;;;;4982232;28;87348;-71
2023/12/09 10:43:45;;;;;;;8.07;4.30;;;;;;;;;;4981162;28;89731;-71
2023/12/09 10:46:13;;;;;;;6.23;4.27;;;;;;;;;;4980959;28;89150;-70
2023/12/09 10:48:42;;;;;;;12.53;4.90;;;;;;;;;;4980538;28;89103;-70
2023/12/09 10:51:11;;;;;;;12.40;4.73;;;;;;;;;;4981939;28;87662;-70
2023/12/09 10:53:39;;;;;;;11.13;5.30;;;;;;;;;;4981198;28;89648;-70
2023/12/09 10:56:08;;;;;;;8.23;5.03;;;;;;;;;;4981254;28;89128;-70
2023/12/09 10:58:36;;;;;;;5.07;4.23;;;;;;;;;;4980349;28;89028;-70
2023/12/09 11:01:09;;;;;;;4.30;3.20;;;;;;;;;;4977874;28;87499;-71
2023/12/09 11:03:37;;;;;;;6.87;4.03;;;;;;;;;;4979335;28;90014;-71
2023/12/09 11:06:06;;;;;;;6.27;4.03;;;;;;;;;;4978082;28;89180;-71
2023/12/09 11:08:35;;;;;;;8.73;4.10;;;;;;;;;;4978062;28;87562;-72
2023/12/09 11:11:05;;;;;;;5.70;3.40;;;;;;;;;;4978357;28;87738;-71
2023/12/09 11:13:34;;;;;;;6.80;3.80;;;;;;;;;;4976717;28;89911;-72
2023/12/09 11:16:10;;;;;;;4.87;2.83;;;;;;;;;;4978405;28;91893;-71
2023/12/09 11:18:47;;;;;;;4.47;3.03;;;;;;;;;;4978120;28;88572;-71
2023/12/09 11:21:17;;;;;;;4.73;3.07;;;;;;;;;;4977943;28;87572;-71
2023/12/09 11:23:48;;;;;;;6.90;3.47;;;;;;;;;;4977281;28;89819;-72
2023/12/09 11:26:17;;;;;;;7.60;3.63;;;;;;;;;;4978028;28;89202;-71
2023/12/09 11:28:57;;;;;;;5.60;2.80;;;;;;;;;;4977452;28;88854;-71
2023/12/09 11:31:34;;;;;;;5.27;3.00;;;;;;;;;;4978275;28;88186;-71
2023/12/09 11:34:03;;;;;;;6.57;2.67;;;;;;;;;;4977554;28;90007;-72
2023/12/09 11:36:35;;;;;;;4.57;2.73;;;;;;;;;;4977283;28;88095;-73
2023/12/09 11:39:06;;;;;;;5.63;3.60;;;;;;;;;;4977480;28;89564;-71
2023/12/09 11:41:35;;;;;;;8.80;3.33;;;;;;;;;;4977627;28;88218;-72
2023/12/09 11:44:03;;;;;;;5.43;3.07;;;;;;;;;;4977725;28;89756;-71
2023/12/09 11:46:32;;;;;;;5.17;3.47;;;;;;;;;;4976594;28;88056;-71
2023/12/09 11:49:02;;;;;;;2.87;2.33;;;;;;;;;;4976324;28;88016;-71
2023/12/09 11:51:32;;;;;;;5.27;3.17;;;;;;;;;;4977387;28;87990;-71
2023/12/09 11:54:01;;;;;;;4.60;3.10;;;;;;;;;;4975813;28;88716;-72
2023/12/09 11:56:29;;;;;;;5.53;3.17;;;;;;;;;;4976724;28;90956;-71
2023/12/09 11:58:58;;;;;;;4.67;2.13;;;;;;;;;;4977142;28;90740;-70
2023/12/09 12:01:27;;;;;;;3.73;3.27;;;;;;;;;;4981231;28;87658;-70
2023/12/09 12:03:56;;;;;;;10.23;2.70;;;;;;;;;;4980810;28;89738;-68
2023/12/09 12:06:26;;;;;;;7.30;2.37;;;;;;;;;;4980666;28;87910;-70
2023/12/09 12:08:54;;;;;;;3.57;1.77;;;;;;;;;;4980342;28;88772;-71
2023/12/09 12:11:23;;;;;;;4.80;2.30;;;;;;;;;;4980064;28;89039;-67
2023/12/09 12:13:52;;;;;;;6.03;2.53;;;;;;;;;;4979601;28;89609;-66
2023/12/09 12:16:21;;;;;;;2.93;2.23;;;;;;;;;;4981043;28;91992;-66
2023/12/09 12:18:50;;;;;;;4.83;2.10;;;;;;;;;;4980483;28;91864;-66
2023/12/09 12:21:19;;;;;;;4.33;2.53;;;;;;;;;;4981196;28;87289;-67
2023/12/09 12:23:54;;;;;;;2.67;2.00;;;;;;;;;;4978990;28;89664;-66
2023/12/09 12:26:22;;;;;;;6.77;2.87;;;;;;;;;;4980374;28;89259;-66
2023/12/09 12:28:53;;;;;;;13.30;5.80;;;;;;;;;;4980236;28;90744;-67
2023/12/09 12:31:21;;;;;;;25.57;8.53;;;;;;;;;;4981376;28;88104;-65
2023/12/09 12:33:49;;;;;;;16.53;6.83;;;;;;;;;;4979990;28;89667;-68
2023/12/09 12:36:19;;;;;;;13.47;4.83;;;;;;;;;;4980066;28;88225;-65
2023/12/09 12:38:50;;;;;;;10.17;4.97;;;;;;;;;;4980253;28;88751;-67
2023/12/09 12:41:21;;;;;;;10.07;4.70;;;;;;;;;;4980640;28;87506;-65
2023/12/09 12:43:49;;;;;;;13.10;4.20;;;;;;;;;;4979389;28;90594;-69
2023/12/09 12:46:20;;;;;;;12.40;4.30;;;;;;;;;;4982037;28;89072;-66
2023/12/09 12:48:48;;;;;;;7.33;4.10;;;;;;;;;;4977008;28;88860;-67
2023/12/09 12:51:17;;;;;;;4.63;2.43;;;;;;;;;;4978138;28;87648;-66
2023/12/09 12:53:46;;;;;;;8.03;3.33;;;;;;;;;;4979101;28;89496;-67
2023/12/09 12:56:15;;;;;;;7.13;4.07;;;;;;;;;;4980235;28;89094;-65
2023/12/09 12:58:45;;;;;;;7.63;2.97;;;;;;;;;;4979392;28;87659;-65
2023/12/09 13:01:14;;;;;;;9.57;2.70;;;;;;;;;;4979239;28;87655;-66
2023/12/09 13:03:44;;;;;;;5.83;3.80;;;;;;;;;;4979332;28;89898;-65
2023/12/09 13:06:12;;;;;;;7.73;3.60;;;;;;;;;;4979724;28;89106;-66
2023/12/09 13:08:42;;;;;;;3.83;2.07;;;;;;;;;;4979441;28;89082;-65
2023/12/09 13:11:11;;;;;;;4.17;2.57;;;;;;;;;;4980038;28;87372;-65
2023/12/09 13:13:39;;;;;;;4.83;2.50;;;;;;;;;;4979273;28;88556;-66
2023/12/09 13:16:09;;;;;;;5.00;2.83;;;;;;;;;;4979045;28;89183;-67
2023/12/09 13:18:38;;;;;;;7.40;2.43;;;;;;;;;;4978527;28;88937;-67
2023/12/09 13:21:09;;;;;;;5.43;2.47;;;;;;;;;;4979873;28;87529;-67
2023/12/09 13:23:37;;;;;;;2.90;1.73;;;;;;;;;;4979714;28;89696;-67
2023/12/09 13:26:08;;;;;;;3.27;2.17;;;;;;;;;;4979280;28;89512;-68
2023/12/09 13:28:36;;;;;;;4.13;2.93;;;;;;;;;;4979364;28;88886;-67
2023/12/09 13:31:07;;;;;;;3.17;1.93;;;;;;;;;;4979488;28;87655;-68
2023/12/09 13:33:37;;;;;;;2.47;1.50;;;;;;;;;;4982713;28;89759;-67
2023/12/09 13:36:06;;;;;;;5.03;1.67;;;;;;;;;;4990791;28;89110;-66
2023/12/09 13:38:38;;;;;;;3.07;1.60;;;;;;;;;;4987552;28;88336;-68
2023/12/09 13:41:06;;;;;;;4.87;1.83;;;;;;;;;;4988726;28;87651;-67
2023/12/09 13:43:35;;;;;;;3.47;1.70;;;;;;;;;;4987259;28;90230;-70
2023/12/09 13:46:04;;;;;;;2.37;1.90;;;;;;;;;;4984434;28;88897;-70
2023/12/09 13:48:32;;;;;;;2.23;1.43;;;;;;;;;;4980926;28;89814;-71
2023/12/09 13:51:04;;;;;;;2.27;1.63;;;;;;;;;;4986908;28;87353;-71
2023/12/09 13:53:33;;;;;;;2.97;1.70;;;;;;;;;;4984390;28;89441;-71
2023/12/09 13:56:03;;;;;;;5.00;1.73;;;;;;;;;;4987909;28;89052;-71
2023/12/09 13:58:32;;;;;;;1.60;1.50;;;;;;;;;;4980521;28;90066;-70
2023/12/09 14:01:01;;;;;;;1.73;1.10;;;;;;;;;;4978086;28;87613;-69
2023/12/09 14:03:31;;;;;;;2.53;1.43;;;;;;;;;;4979173;28;89892;-70
2023/12/09 14:05:59;;;;;;;4.50;1.73;;;;;;;;;;4979057;28;88136;-71
2023/12/09 14:08:29;;;;;;;4.23;1.93;;;;;;;;;;4977937;28;88654;-71
2023/12/09 14:11:01;;;;;;;1.80;1.70;;;;;;;;;;4979181;28;87584;-71
2023/12/09 14:13:29;;;;;;;5.00;1.37;;;;;;;;;;4980836;28;89702;-71
2023/12/09 14:15:58;;;;;;;2.07;1.60;;;;;;;;;;4978453;28;89191;-71
2023/12/09 14:18:28;;;;;;;1.00;0.90;;;;;;;;;;4978529;28;88066;-70
2023/12/09 14:20:56;;;;;;;3.17;1.50;;;;;;;;;;4983950;28;88274;-70
2023/12/09 14:23:27;;;;;;;2.23;1.57;;;;;;;;;;4980127;28;89611;-71
2023/12/09 14:25:57;;;;;;;3.13;1.20;;;;;;;;;;4985367;28;89404;-70
2023/12/09 14:28:25;;;;;;;3.00;1.60;;;;;;;;;;4986446;28;88199;-70
2023/12/09 14:30:54;;;;;;;4.93;2.10;;;;;;;;;;4978217;28;87592;-69
2023/12/09 14:33:23;;;;;;;2.60;1.73;;;;;;;;;;4977740;28;89766;-69
2023/12/09 14:35:52;;;;;;;2.90;1.90;;;;;;;;;;4978273;28;88987;-71
2023/12/09 14:38:20;;;;;;;2.70;2.20;;;;;;;;;;4978354;28;88759;-70
2023/12/09 14:40:49;;;;;;;3.93;2.30;;;;;;;;;;4978716;28;87723;-71
2023/12/09 14:43:19;;;;;;;4.20;2.97;;;;;;;;;;4978000;28;89625;-69
2023/12/09 14:45:47;;;;;;;6.23;3.90;;;;;;;;;;4978414;28;92414;-70
2023/12/09 14:48:16;;;;;;;8.20;4.17;;;;;;;;;;4977548;28;88659;-68
2023/12/09 14:50:45;;;;;;;9.40;6.17;;;;;;;;;;4978416;28;88206;-69